PAMD METAR and TAF weather

Enter ICAO airport designator
Station Type Date Time Source
PAMD METAR 2024/05/28 22:51 UTC NOAA

PAMD 282251Z AUTO 18005KT 10SM -RA SCT015 BKN026 OVC032 08/06 A2996 RMK AO2 RAE04B48 SLP133 P0000 T00780056


Station Type Date Time Source
PAMD Decoded METAR 2024/05/28 22:51 UTC NOAA

Middleton Island, Middleton Island Airport, AK, United States (PAMD) 59-26N 146-18W 14M
May 28, 2024 - 06:51 PM EDT / 2024.05.28 2251 UTC
Wind: from the S (180 degrees) at 6 MPH (5 KT):0
Visibility: 10 mile(s):0
Sky conditions: overcast
Weather: light rain
Precipitation last hour: A trace
Temperature: 46.0 F (7.8 C)
Dew Point: 42.1 F (5.6 C)
Relative Humidity: 85%
Pressure (altimeter): 29.96 in. Hg (1014 hPa)
ob: PAMD 282251Z AUTO 18005KT 10SM -RA SCT015 BKN026 OVC032 08/06 A2996 RMK AO2 RAE04B48 SLP133 P0000 T00780056
cycle: 23

Station Type Date Time Source
PAMD TAF UTC NOAA

Error!

Example: see airport list